sensor_id;sensor_type;location;lat;lon;timestamp;pressure;altitude;pressure_sealevel;temperature;humidity
25084;BME280;13075;55.682;37.564;2023-06-26T00:00:46;99360.44;;;25.92;64.42
25084;BME280;13075;55.682;37.564;2023-06-26T00:03:13;99357.41;;;25.80;65.26
25084;BME280;13075;55.682;37.564;2023-06-26T00:05:40;99357.78;;;25.87;64.88
25084;BME280;13075;55.682;37.564;2023-06-26T00:08:05;99355.16;;;25.82;64.86
25084;BME280;13075;55.682;37.564;2023-06-26T00:10:31;99355.56;;;25.89;64.78
25084;BME280;13075;55.682;37.564;2023-06-26T00:12:56;99350.06;;;25.89;64.33
25084;BME280;13075;55.682;37.564;2023-06-26T00:15:22;99350.06;;;25.89;64.41
25084;BME280;13075;55.682;37.564;2023-06-26T00:17:47;99356.06;;;25.77;64.59
25084;BME280;13075;55.682;37.564;2023-06-26T00:20:13;99351.00;;;25.84;65.02
25084;BME280;13075;55.682;37.564;2023-06-26T00:22:39;99352.22;;;25.92;64.51
25084;BME280;13075;55.682;37.564;2023-06-26T00:25:07;99341.88;;;25.75;65.09
25084;BME280;13075;55.682;37.564;2023-06-26T00:27:33;99347.44;;;25.84;65.06
25084;BME280;13075;55.682;37.564;2023-06-26T00:29:58;99346.53;;;25.75;65.18
25084;BME280;13075;55.682;37.564;2023-06-26T00:32:24;99346.31;;;25.85;64.13
25084;BME280;13075;55.682;37.564;2023-06-26T00:34:49;99341.94;;;25.84;63.81
25084;BME280;13075;55.682;37.564;2023-06-26T00:37:15;99344.06;;;25.73;65.03
25084;BME280;13075;55.682;37.564;2023-06-26T00:39:40;99346.13;;;25.81;64.60
25084;BME280;13075;55.682;37.564;2023-06-26T00:42:07;99347.44;;;25.70;64.24
25084;BME280;13075;55.682;37.564;2023-06-26T00:44:33;99351.63;;;25.68;64.22
25084;BME280;13075;55.682;37.564;2023-06-26T00:46:58;99360.31;;;25.56;64.43
25084;BME280;13075;55.682;37.564;2023-06-26T00:49:24;99359.41;;;25.61;64.59
25084;BME280;13075;55.682;37.564;2023-06-26T00:51:49;99357.28;;;25.71;64.48
25084;BME280;13075;55.682;37.564;2023-06-26T00:54:15;99350.28;;;25.79;64.37
25084;BME280;13075;55.682;37.564;2023-06-26T00:56:46;99352.22;;;25.65;65.75
25084;BME280;13075;55.682;37.564;2023-06-26T00:59:12;99352.09;;;25.56;65.60
25084;BME280;13075;55.682;37.564;2023-06-26T01:01:37;99347.34;;;25.62;65.02
25084;BME280;13075;55.682;37.564;2023-06-26T01:04:03;99356.34;;;25.49;66.65
25084;BME280;13075;55.682;37.564;2023-06-26T01:06:28;99354.22;;;25.46;66.80
25084;BME280;13075;55.682;37.564;2023-06-26T01:08:57;99337.88;;;25.54;66.79
25084;BME280;13075;55.682;37.564;2023-06-26T01:11:23;99350.28;;;25.52;67.34
25084;BME280;13075;55.682;37.564;2023-06-26T01:13:48;99347.63;;;25.47;68.50
25084;BME280;13075;55.682;37.564;2023-06-26T01:16:17;99345.22;;;25.40;68.76
25084;BME280;13075;55.682;37.564;2023-06-26T01:18:45;99341.38;;;25.41;68.51
25084;BME280;13075;55.682;37.564;2023-06-26T01:21:10;99349.84;;;25.45;68.78
25084;BME280;13075;55.682;37.564;2023-06-26T01:28:35;99344.91;;;25.28;70.71
25084;BME280;13075;55.682;37.564;2023-06-26T01:31:03;99351.59;;;25.22;70.73
25084;BME280;13075;55.682;37.564;2023-06-26T01:33:29;99353.72;;;25.25;70.11
25084;BME280;13075;55.682;37.564;2023-06-26T01:35:55;99349.47;;;25.32;69.13
25084;BME280;13075;55.682;37.564;2023-06-26T01:38:21;99349.09;;;25.39;68.15
25084;BME280;13075;55.682;37.564;2023-06-26T01:40:48;99346.88;;;25.41;69.05
25084;BME280;13075;55.682;37.564;2023-06-26T01:43:16;99341.47;;;25.36;69.97
25084;BME280;13075;55.682;37.564;2023-06-26T01:45:44;99339.44;;;25.28;71.03
25084;BME280;13075;55.682;37.564;2023-06-26T01:48:11;99349.97;;;25.21;72.25
25084;BME280;13075;55.682;37.564;2023-06-26T01:50:40;99346.75;;;25.32;71.52
25084;BME280;13075;55.682;37.564;2023-06-26T01:55:34;99338.00;;;25.49;69.64
25084;BME280;13075;55.682;37.564;2023-06-26T01:58:02;99349.06;;;25.25;71.37
25084;BME280;13075;55.682;37.564;2023-06-26T02:00:29;99356.59;;;25.33;71.73
25084;BME280;13075;55.682;37.564;2023-06-26T02:02:54;99358.03;;;25.45;71.08
25084;BME280;13075;55.682;37.564;2023-06-26T02:05:20;99346.63;;;25.56;70.78
25084;BME280;13075;55.682;37.564;2023-06-26T02:07:45;99354.50;;;25.44;72.23
25084;BME280;13075;55.682;37.564;2023-06-26T02:10:11;99353.44;;;25.40;72.37
25084;BME280;13075;55.682;37.564;2023-06-26T02:12:36;99353.66;;;25.44;73.12
25084;BME280;13075;55.682;37.564;2023-06-26T02:15:03;99356.84;;;25.51;73.11
25084;BME280;13075;55.682;37.564;2023-06-26T02:17:28;99347.13;;;25.58;72.53
25084;BME280;13075;55.682;37.564;2023-06-26T02:19:54;99359.75;;;25.40;73.73
25084;BME280;13075;55.682;37.564;2023-06-26T02:22:19;99354.44;;;25.49;74.24
25084;BME280;13075;55.682;37.564;2023-06-26T02:24:47;99341.72;;;25.53;74.46
25084;BME280;13075;55.682;37.564;2023-06-26T02:27:12;99358.50;;;25.52;75.22
25084;BME280;13075;55.682;37.564;2023-06-26T02:29:38;99355.06;;;25.60;74.93
25084;BME280;13075;55.682;37.564;2023-06-26T02:32:06;99354.13;;;25.51;75.08
25084;BME280;13075;55.682;37.564;2023-06-26T02:34:32;99367.22;;;25.54;75.54
25084;BME280;13075;55.682;37.564;2023-06-26T02:37:00;99363.66;;;25.53;76.70
25084;BME280;13075;55.682;37.564;2023-06-26T02:39:26;99349.88;;;25.72;75.59
25084;BME280;13075;55.682;37.564;2023-06-26T02:41:51;99350.97;;;25.71;75.58
25084;BME280;13075;55.682;37.564;2023-06-26T02:44:17;99359.09;;;25.76;75.10
25084;BME280;13075;55.682;37.564;2023-06-26T02:46:42;99354.94;;;25.78;75.50
25084;BME280;13075;55.682;37.564;2023-06-26T02:49:08;99352.19;;;25.78;77.03
25084;BME280;13075;55.682;37.564;2023-06-26T02:51:33;99347.53;;;25.79;76.10
25084;BME280;13075;55.682;37.564;2023-06-26T02:54:03;99348.75;;;25.86;75.69
25084;BME280;13075;55.682;37.564;2023-06-26T02:56:29;99351.69;;;25.76;76.01
25084;BME280;13075;55.682;37.564;2023-06-26T02:58:55;99360.31;;;25.56;76.58
25084;BME280;13075;55.682;37.564;2023-06-26T03:01:21;99358.41;;;25.97;75.91
25084;BME280;13075;55.682;37.564;2023-06-26T03:03:47;99364.19;;;26.10;74.87
25084;BME280;13075;55.682;37.564;2023-06-26T03:06:15;99361.16;;;26.11;75.51
25084;BME280;13075;55.682;37.564;2023-06-26T03:08:41;99358.00;;;26.18;74.62
25084;BME280;13075;55.682;37.564;2023-06-26T03:11:07;99354.34;;;26.09;72.98
25084;BME280;13075;55.682;37.564;2023-06-26T03:13:35;99360.44;;;25.65;76.91
25084;BME280;13075;55.682;37.564;2023-06-26T03:16:00;99361.47;;;25.82;62.93
25084;BME280;13075;55.682;37.564;2023-06-26T03:18:27;99359.81;;;25.95;59.10
25084;BME280;13075;55.682;37.564;2023-06-26T03:20:52;99353.22;;;26.23;56.64
25084;BME280;13075;55.682;37.564;2023-06-26T03:23:21;99359.75;;;26.99;54.43
25084;BME280;13075;55.682;37.564;2023-06-26T03:25:47;99355.19;;;26.94;53.31
25084;BME280;13075;55.682;37.564;2023-06-26T03:28:26;99352.75;;;27.15;52.37
25084;BME280;13075;55.682;37.564;2023-06-26T03:30:52;99345.81;;;26.95;51.80
25084;BME280;13075;55.682;37.564;2023-06-26T03:33:17;99333.31;;;28.04;49.68
25084;BME280;13075;55.682;37.564;2023-06-26T03:35:43;99344.72;;;27.89;48.42
25084;BME280;13075;55.682;37.564;2023-06-26T03:38:11;99344.72;;;28.45;47.30
25084;BME280;13075;55.682;37.564;2023-06-26T03:40:37;99335.81;;;28.39;47.10
25084;BME280;13075;55.682;37.564;2023-06-26T03:43:02;99335.81;;;30.39;43.38
25084;BME280;13075;55.682;37.564;2023-06-26T03:45:36;99342.03;;;31.30;41.27
25084;BME280;13075;55.682;37.564;2023-06-26T03:48:03;99338.91;;;29.79;43.13
25084;BME280;13075;55.682;37.564;2023-06-26T03:50:28;99340.13;;;29.98;42.81
25084;BME280;13075;55.682;37.564;2023-06-26T03:52:56;99342.53;;;29.62;42.63
25084;BME280;13075;55.682;37.564;2023-06-26T03:55:21;99334.69;;;31.02;40.59
25084;BME280;13075;55.682;37.564;2023-06-26T03:57:48;99332.31;;;31.12;40.71
25084;BME280;13075;55.682;37.564;2023-06-26T04:00:14;99330.31;;;30.30;41.44
25084;BME280;13075;55.682;37.564;2023-06-26T04:02:42;99328.22;;;30.56;41.30
25084;BME280;13075;55.682;37.564;2023-06-26T04:05:10;99333.53;;;29.27;43.75
25084;BME280;13075;55.682;37.564;2023-06-26T04:07:36;99334.88;;;29.21;43.78
25084;BME280;13075;55.682;37.564;2023-06-26T04:10:03;99333.22;;;29.12;44.02
25084;BME280;13075;55.682;37.564;2023-06-26T04:12:29;99341.19;;;28.96;44.06
25084;BME280;13075;55.682;37.564;2023-06-26T04:14:55;99332.91;;;28.44;45.05
25084;BME280;13075;55.682;37.564;2023-06-26T04:17:20;99347.53;;;28.79;45.19
25084;BME280;13075;55.682;37.564;2023-06-26T04:19:47;99339.81;;;28.16;45.67
25084;BME280;13075;55.682;37.564;2023-06-26T04:22:12;99341.50;;;28.60;45.79
25084;BME280;13075;55.682;37.564;2023-06-26T04:24:37;99335.16;;;28.42;46.47
25084;BME280;13075;55.682;37.564;2023-06-26T04:27:03;99335.50;;;28.50;46.52
25084;BME280;13075;55.682;37.564;2023-06-26T04:29:28;99344.94;;;28.74;46.50
25084;BME280;13075;55.682;37.564;2023-06-26T04:31:54;99343.72;;;28.15;46.60
25084;BME280;13075;55.682;37.564;2023-06-26T04:34:29;99331.00;;;27.97;46.54
25084;BME280;13075;55.682;37.564;2023-06-26T04:36:57;99329.50;;;27.43;46.77
25084;BME280;13075;55.682;37.564;2023-06-26T04:39:23;99332.25;;;28.30;45.89
25084;BME280;13075;55.682;37.564;2023-06-26T04:41:49;99339.28;;;28.62;45.35
25084;BME280;13075;55.682;37.564;2023-06-26T04:44:14;99333.28;;;28.77;46.39
25084;BME280;13075;55.682;37.564;2023-06-26T04:46:39;99339.69;;;28.47;45.82
25084;BME280;13075;55.682;37.564;2023-06-26T04:49:07;99333.44;;;27.99;46.24
25084;BME280;13075;55.682;37.564;2023-06-26T04:51:32;99331.75;;;27.80;45.73
25084;BME280;13075;55.682;37.564;2023-06-26T04:53:57;99333.41;;;27.81;46.05
25084;BME280;13075;55.682;37.564;2023-06-26T04:56:23;99340.06;;;28.71;45.04
25084;BME280;13075;55.682;37.564;2023-06-26T04:58:48;99333.41;;;28.98;44.66
25084;BME280;13075;55.682;37.564;2023-06-26T05:01:14;99326.75;;;28.99;44.92
25084;BME280;13075;55.682;37.564;2023-06-26T05:03:41;99334.22;;;28.98;43.96
25084;BME280;13075;55.682;37.564;2023-06-26T05:06:06;99334.38;;;28.93;43.84
25084;BME280;13075;55.682;37.564;2023-06-26T05:08:32;99335.84;;;29.08;43.31
25084;BME280;13075;55.682;37.564;2023-06-26T05:10:57;99339.91;;;28.85;43.74
25084;BME280;13075;55.682;37.564;2023-06-26T05:13:26;99336.28;;;29.27;43.21
25084;BME280;13075;55.682;37.564;2023-06-26T05:15:52;99336.81;;;28.95;43.76
25084;BME280;13075;55.682;37.564;2023-06-26T05:18:17;99327.13;;;28.63;44.22
25084;BME280;13075;55.682;37.564;2023-06-26T05:20:43;99340.03;;;29.23;43.56
25084;BME280;13075;55.682;37.564;2023-06-26T05:23:09;99335.66;;;28.96;43.32
25084;BME280;13075;55.682;37.564;2023-06-26T05:25:35;99335.97;;;29.12;43.55
25084;BME280;13075;55.682;37.564;2023-06-26T05:28:01;99336.00;;;29.03;42.46
25084;BME280;13075;55.682;37.564;2023-06-26T05:30:27;99335.63;;;29.39;42.13
25084;BME280;13075;55.682;37.564;2023-06-26T05:32:53;99326.19;;;29.48;41.87
25084;BME280;13075;55.682;37.564;2023-06-26T05:35:22;99329.63;;;28.17;43.03
25084;BME280;13075;55.682;37.564;2023-06-26T05:37:48;99326.44;;;29.00;42.89
25084;BME280;13075;55.682;37.564;2023-06-26T05:40:14;99331.75;;;29.31;42.11
25084;BME280;13075;55.682;37.564;2023-06-26T05:42:40;99332.00;;;28.75;42.41
25084;BME280;13075;55.682;37.564;2023-06-26T05:45:05;99332.94;;;28.70;43.31
25084;BME280;13075;55.682;37.564;2023-06-26T05:47:31;99325.94;;;28.98;42.24
25084;BME280;13075;55.682;37.564;2023-06-26T05:49:57;99324.31;;;29.23;42.49
25084;BME280;13075;55.682;37.564;2023-06-26T05:52:22;99328.06;;;29.01;43.35
25084;BME280;13075;55.682;37.564;2023-06-26T05:54:48;99328.66;;;29.41;42.51
25084;BME280;13075;55.682;37.564;2023-06-26T05:57:13;99325.56;;;29.43;41.55
25084;BME280;13075;55.682;37.564;2023-06-26T05:59:40;99325.88;;;29.50;40.59
25084;BME280;13075;55.682;37.564;2023-06-26T06:02:06;99323.88;;;29.59;41.42
25084;BME280;13075;55.682;37.564;2023-06-26T06:04:32;99319.94;;;29.69;41.62
25084;BME280;13075;55.682;37.564;2023-06-26T06:06:57;99313.75;;;29.80;40.76
25084;BME280;13075;55.682;37.564;2023-06-26T06:09:23;99321.38;;;29.83;40.46
25084;BME280;13075;55.682;37.564;2023-06-26T06:11:48;99308.75;;;30.03;39.76
25084;BME280;13075;55.682;37.564;2023-06-26T06:14:13;99314.81;;;30.46;39.45
25084;BME280;13075;55.682;37.564;2023-06-26T06:16:39;99311.91;;;31.05;38.72
25084;BME280;13075;55.682;37.564;2023-06-26T06:19:04;99312.38;;;31.07;38.82
25084;BME280;13075;55.682;37.564;2023-06-26T06:21:32;99308.13;;;30.89;39.14
25084;BME280;13075;55.682;37.564;2023-06-26T06:23:57;99310.31;;;32.73;37.03
25084;BME280;13075;55.682;37.564;2023-06-26T06:26:22;99306.56;;;34.15;34.05
25084;BME280;13075;55.682;37.564;2023-06-26T06:28:48;99316.53;;;32.82;35.87
25084;BME280;13075;55.682;37.564;2023-06-26T06:31:13;99310.38;;;32.49;35.88
25084;BME280;13075;55.682;37.564;2023-06-26T06:33:39;99317.00;;;31.60;36.13
25084;BME280;13075;55.682;37.564;2023-06-26T06:36:04;99309.59;;;31.52;35.36
25084;BME280;13075;55.682;37.564;2023-06-26T06:38:29;99303.06;;;32.04;35.16
25084;BME280;13075;55.682;37.564;2023-06-26T06:40:55;99318.22;;;31.38;36.60
25084;BME280;13075;55.682;37.564;2023-06-26T06:43:20;99310.44;;;31.76;34.53
25084;BME280;13075;55.682;37.564;2023-06-26T06:45:46;99304.91;;;32.13;34.13
25084;BME280;13075;55.682;37.564;2023-06-26T06:48:11;99312.47;;;32.40;33.23
25084;BME280;13075;55.682;37.564;2023-06-26T06:50:37;99307.81;;;33.39;31.49
25084;BME280;13075;55.682;37.564;2023-06-26T06:53:02;99297.31;;;34.26;29.72
25084;BME280;13075;55.682;37.564;2023-06-26T06:55:28;99306.25;;;37.55;26.98
25084;BME280;13075;55.682;37.564;2023-06-26T06:57:53;99295.25;;;41.31;23.71
25084;BME280;13075;55.682;37.564;2023-06-26T07:00:18;99293.56;;;45.73;20.02
25084;BME280;13075;55.682;37.564;2023-06-26T07:02:44;99278.78;;;47.85;18.09
25084;BME280;13075;55.682;37.564;2023-06-26T07:05:10;99284.09;;;49.93;16.07
25084;BME280;13075;55.682;37.564;2023-06-26T07:07:36;99283.97;;;50.15;15.58
25084;BME280;13075;55.682;37.564;2023-06-26T07:10:12;99288.66;;;52.80;14.06
25084;BME280;13075;55.682;37.564;2023-06-26T07:12:38;99283.44;;;53.77;13.28
25084;BME280;13075;55.682;37.564;2023-06-26T07:15:04;99281.03;;;54.36;13.01
25084;BME280;13075;55.682;37.564;2023-06-26T07:17:30;99275.31;;;55.19;12.05
25084;BME280;13075;55.682;37.564;2023-06-26T07:19:56;99278.50;;;53.58;12.73
25084;BME280;13075;55.682;37.564;2023-06-26T07:22:21;99274.88;;;54.95;12.17
25084;BME280;13075;55.682;37.564;2023-06-26T07:24:47;99275.44;;;53.12;11.90
25084;BME280;13075;55.682;37.564;2023-06-26T07:27:15;99272.50;;;53.96;12.28
25084;BME280;13075;55.682;37.564;2023-06-26T07:29:41;99265.59;;;54.48;11.82
25084;BME280;13075;55.682;37.564;2023-06-26T07:32:07;99268.03;;;53.05;12.56
25084;BME280;13075;55.682;37.564;2023-06-26T07:34:32;99257.53;;;49.96;13.80
25084;BME280;13075;55.682;37.564;2023-06-26T07:36:58;99266.19;;;46.15;15.42
25084;BME280;13075;55.682;37.564;2023-06-26T07:39:23;99252.56;;;43.76;17.42
25084;BME280;13075;55.682;37.564;2023-06-26T07:41:48;99259.97;;;41.23;19.38
25084;BME280;13075;55.682;37.564;2023-06-26T07:44:14;99254.59;;;45.65;17.39
25084;BME280;13075;55.682;37.564;2023-06-26T07:46:39;99255.09;;;51.51;14.15
25084;BME280;13075;55.682;37.564;2023-06-26T07:49:05;99248.38;;;48.51;15.17
25084;BME280;13075;55.682;37.564;2023-06-26T07:51:30;99251.06;;;43.45;18.32
25084;BME280;13075;55.682;37.564;2023-06-26T07:53:56;99248.06;;;46.95;17.25
25084;BME280;13075;55.682;37.564;2023-06-26T07:56:21;99247.97;;;47.12;16.74
25084;BME280;13075;55.682;37.564;2023-06-26T07:58:46;99248.69;;;43.66;18.01
25084;BME280;13075;55.682;37.564;2023-06-26T08:01:12;99255.22;;;47.25;16.59
25084;BME280;13075;55.682;37.564;2023-06-26T08:03:37;99239.56;;;47.59;15.65
25084;BME280;13075;55.682;37.564;2023-06-26T08:06:03;99238.91;;;51.81;13.75
25084;BME280;13075;55.682;37.564;2023-06-26T08:08:28;99241.72;;;45.12;17.19
25084;BME280;13075;55.682;37.564;2023-06-26T08:10:54;99242.59;;;41.90;19.73
25084;BME280;13075;55.682;37.564;2023-06-26T08:13:19;99242.06;;;39.42;22.13
25084;BME280;13075;55.682;37.564;2023-06-26T08:15:45;99238.78;;;40.28;21.99
25084;BME280;13075;55.682;37.564;2023-06-26T08:18:10;99251.25;;;38.21;23.14
25084;BME280;13075;55.682;37.564;2023-06-26T08:20:36;99244.94;;;36.25;24.73
25084;BME280;13075;55.682;37.564;2023-06-26T08:23:03;99248.41;;;35.44;25.63
25084;BME280;13075;55.682;37.564;2023-06-26T08:25:29;99251.69;;;34.85;26.25
25084;BME280;13075;55.682;37.564;2023-06-26T08:27:54;99253.38;;;34.32;26.86
25084;BME280;13075;55.682;37.564;2023-06-26T08:30:20;99260.56;;;32.92;28.91
25084;BME280;13075;55.682;37.564;2023-06-26T08:32:46;99266.88;;;33.05;29.42
25084;BME280;13075;55.682;37.564;2023-06-26T08:35:11;99258.75;;;33.12;30.16
25084;BME280;13075;55.682;37.564;2023-06-26T08:37:37;99259.34;;;32.50;29.85
25084;BME280;13075;55.682;37.564;2023-06-26T08:40:03;99260.00;;;32.19;30.54
25084;BME280;13075;55.682;37.564;2023-06-26T08:42:29;99256.47;;;31.70;31.28
25084;BME280;13075;55.682;37.564;2023-06-26T08:44:54;99259.56;;;31.93;31.53
25084;BME280;13075;55.682;37.564;2023-06-26T08:47:20;99264.13;;;31.16;32.17
25084;BME280;13075;55.682;37.564;2023-06-26T08:49:47;99268.34;;;31.47;31.45
25084;BME280;13075;55.682;37.564;2023-06-26T08:52:22;99264.03;;;31.25;31.66
25084;BME280;13075;55.682;37.564;2023-06-26T08:54:50;99263.97;;;31.01;32.61
25084;BME280;13075;55.682;37.564;2023-06-26T08:57:18;99258.25;;;31.18;33.11
25084;BME280;13075;55.682;37.564;2023-06-26T08:59:45;99253.50;;;31.06;33.07
25084;BME280;13075;55.682;37.564;2023-06-26T09:02:11;99259.13;;;30.98;33.22
25084;BME280;13075;55.682;37.564;2023-06-26T09:04:36;99257.31;;;31.14;32.55
25084;BME280;13075;55.682;37.564;2023-06-26T09:07:02;99259.47;;;30.96;33.20
25084;BME280;13075;55.682;37.564;2023-06-26T09:09:28;99261.25;;;30.18;33.81
25084;BME280;13075;55.682;37.564;2023-06-26T09:11:53;99252.47;;;31.11;32.21
25084;BME280;13075;55.682;37.564;2023-06-26T09:14:20;99257.91;;;31.07;32.83
25084;BME280;13075;55.682;37.564;2023-06-26T09:16:46;99255.13;;;31.07;32.74
25084;BME280;13075;55.682;37.564;2023-06-26T09:19:11;99259.13;;;30.98;33.01
25084;BME280;13075;55.682;37.564;2023-06-26T09:21:38;99253.59;;;30.98;32.83
25084;BME280;13075;55.682;37.564;2023-06-26T09:24:04;99262.19;;;30.84;33.75
25084;BME280;13075;55.682;37.564;2023-06-26T09:26:31;99265.00;;;30.96;34.19
25084;BME280;13075;55.682;37.564;2023-06-26T09:28:56;99258.09;;;30.49;33.71
25084;BME280;13075;55.682;37.564;2023-06-26T09:31:23;99256.75;;;30.88;34.26
25084;BME280;13075;55.682;37.564;2023-06-26T09:33:49;99258.63;;;30.21;34.27
25084;BME280;13075;55.682;37.564;2023-06-26T09:36:20;99261.94;;;30.36;34.19
25084;BME280;13075;55.682;37.564;2023-06-26T09:38:50;99257.69;;;30.17;34.95
25084;BME280;13075;55.682;37.564;2023-06-26T09:41:16;99267.50;;;29.86;35.21
25084;BME280;13075;55.682;37.564;2023-06-26T09:43:48;99261.50;;;29.46;35.91
25084;BME280;13075;55.682;37.564;2023-06-26T09:46:23;99257.78;;;29.71;36.30
25084;BME280;13075;55.682;37.564;2023-06-26T09:48:49;99268.28;;;29.48;37.02
25084;BME280;13075;55.682;37.564;2023-06-26T09:51:16;99273.34;;;28.83;37.64
25084;BME280;13075;55.682;37.564;2023-06-26T09:53:41;99271.06;;;29.40;36.51
25084;BME280;13075;55.682;37.564;2023-06-26T09:56:07;99268.22;;;29.28;37.16
25084;BME280;13075;55.682;37.564;2023-06-26T09:58:32;99259.41;;;29.81;37.43
25084;BME280;13075;55.682;37.564;2023-06-26T10:00:58;99261.66;;;29.79;41.30
25084;BME280;13075;55.682;37.564;2023-06-26T10:03:23;99260.53;;;29.80;36.86
25084;BME280;13075;55.682;37.564;2023-06-26T10:05:49;99259.91;;;29.36;38.33
25084;BME280;13075;55.682;37.564;2023-06-26T10:08:15;99254.81;;;29.85;37.68
25084;BME280;13075;55.682;37.564;2023-06-26T10:10:41;99257.28;;;30.27;37.14
25084;BME280;13075;55.682;37.564;2023-06-26T10:13:10;99253.84;;;30.31;37.57
25084;BME280;13075;55.682;37.564;2023-06-26T10:15:36;99247.09;;;29.78;36.88
25084;BME280;13075;55.682;37.564;2023-06-26T10:18:02;99248.63;;;29.58;37.43
25084;BME280;13075;55.682;37.564;2023-06-26T10:20:27;99251.09;;;30.10;36.19
25084;BME280;13075;55.682;37.564;2023-06-26T10:22:53;99247.41;;;30.27;36.48
25084;BME280;13075;55.682;37.564;2023-06-26T10:25:22;99248.53;;;30.25;37.68
25084;BME280;13075;55.682;37.564;2023-06-26T10:27:51;99240.81;;;30.40;37.79
25084;BME280;13075;55.682;37.564;2023-06-26T10:30:19;99244.16;;;30.24;34.55
25084;BME280;13075;55.682;37.564;2023-06-26T10:32:47;99238.91;;;30.52;34.59
25084;BME280;13075;55.682;37.564;2023-06-26T10:35:12;99236.16;;;30.52;33.94
25084;BME280;13075;55.682;37.564;2023-06-26T10:37:47;99243.63;;;30.52;34.40
25084;BME280;13075;55.682;37.564;2023-06-26T10:40:14;99230.69;;;30.23;35.47
25084;BME280;13075;55.682;37.564;2023-06-26T10:42:40;99227.16;;;30.76;35.08
25084;BME280;13075;55.682;37.564;2023-06-26T10:45:23;99221.50;;;30.72;35.24
25084;BME280;13075;55.682;37.564;2023-06-26T10:47:53;99217.94;;;31.05;34.79
25084;BME280;13075;55.682;37.564;2023-06-26T10:52:44;99215.84;;;31.02;35.05
25084;BME280;13075;55.682;37.564;2023-06-26T10:55:10;99209.56;;;31.50;34.76
25084;BME280;13075;55.682;37.564;2023-06-26T10:57:35;99209.53;;;31.13;35.17
25084;BME280;13075;55.682;37.564;2023-06-26T11:00:10;99216.91;;;31.21;35.30
25084;BME280;13075;55.682;37.564;2023-06-26T11:02:49;99209.22;;;31.87;35.19
25084;BME280;13075;55.682;37.564;2023-06-26T11:05:32;99217.03;;;31.97;33.28
25084;BME280;13075;55.682;37.564;2023-06-26T11:08:08;99209.47;;;31.58;34.11
25084;BME280;13075;55.682;37.564;2023-06-26T11:10:53;99213.59;;;31.76;33.37
25084;BME280;13075;55.682;37.564;2023-06-26T11:13:19;99205.28;;;31.40;34.76
25084;BME280;13075;55.682;37.564;2023-06-26T11:15:48;99206.66;;;31.34;34.06
25084;BME280;13075;55.682;37.564;2023-06-26T11:18:14;99200.44;;;31.73;34.09
25084;BME280;13075;55.682;37.564;2023-06-26T11:20:40;99199.13;;;32.75;33.21
25084;BME280;13075;55.682;37.564;2023-06-26T11:23:05;99198.78;;;32.92;33.50
25084;BME280;13075;55.682;37.564;2023-06-26T11:25:35;99198.81;;;33.23;34.42
25084;BME280;13075;55.682;37.564;2023-06-26T11:28:02;99188.19;;;33.25;34.11
25084;BME280;13075;55.682;37.564;2023-06-26T11:30:28;99191.53;;;32.87;31.86
25084;BME280;13075;55.682;37.564;2023-06-26T11:33:02;99190.03;;;32.90;31.57
25084;BME280;13075;55.682;37.564;2023-06-26T11:35:27;99190.25;;;33.12;31.11
25084;BME280;13075;55.682;37.564;2023-06-26T11:37:56;99185.72;;;32.92;30.99
25084;BME280;13075;55.682;37.564;2023-06-26T11:40:22;99181.75;;;33.05;31.65
25084;BME280;13075;55.682;37.564;2023-06-26T11:42:52;99165.78;;;32.71;33.37
25084;BME280;13075;55.682;37.564;2023-06-26T11:45:18;99172.69;;;32.93;30.59
25084;BME280;13075;55.682;37.564;2023-06-26T11:47:44;99169.25;;;32.84;32.65
25084;BME280;13075;55.682;37.564;2023-06-26T11:50:14;99168.88;;;32.42;29.98
25084;BME280;13075;55.682;37.564;2023-06-26T11:52:41;99168.78;;;31.47;30.62
25084;BME280;13075;55.682;37.564;2023-06-26T11:55:06;99160.00;;;31.32;31.15
25084;BME280;13075;55.682;37.564;2023-06-26T11:57:32;99165.22;;;32.10;30.77
25084;BME280;13075;55.682;37.564;2023-06-26T11:59:57;99151.25;;;31.55;30.45
25084;BME280;13075;55.682;37.564;2023-06-26T12:02:23;99143.25;;;32.57;30.14
25084;BME280;13075;55.682;37.564;2023-06-26T12:04:48;99143.69;;;32.59;30.34
25084;BME280;13075;55.682;37.564;2023-06-26T12:07:14;99139.38;;;32.18;31.48
25084;BME280;13075;55.682;37.564;2023-06-26T12:09:43;99140.56;;;32.05;31.13
25084;BME280;13075;55.682;37.564;2023-06-26T12:12:09;99136.84;;;31.37;31.34
25084;BME280;13075;55.682;37.564;2023-06-26T12:14:35;99139.53;;;31.85;30.61
25084;BME280;13075;55.682;37.564;2023-06-26T12:17:05;99141.81;;;31.43;30.69
25084;BME280;13075;55.682;37.564;2023-06-26T12:19:31;99141.22;;;32.14;31.58
25084;BME280;13075;55.682;37.564;2023-06-26T12:21:58;99137.97;;;32.40;30.50
25084;BME280;13075;55.682;37.564;2023-06-26T12:24:23;99128.91;;;32.27;31.04
25084;BME280;13075;55.682;37.564;2023-06-26T12:26:52;99133.47;;;32.20;30.41
25084;BME280;13075;55.682;37.564;2023-06-26T12:29:19;99130.19;;;32.30;30.00
25084;BME280;13075;55.682;37.564;2023-06-26T12:31:52;99132.00;;;31.58;30.79
25084;BME280;13075;55.682;37.564;2023-06-26T12:34:21;99131.84;;;30.82;31.43
25084;BME280;13075;55.682;37.564;2023-06-26T12:36:49;99129.50;;;31.05;31.50
25084;BME280;13075;55.682;37.564;2023-06-26T12:39:16;99133.78;;;30.04;32.05
25084;BME280;13075;55.682;37.564;2023-06-26T12:41:45;99120.31;;;30.68;31.59
25084;BME280;13075;55.682;37.564;2023-06-26T12:44:20;99130.84;;;30.42;32.00
25084;BME280;13075;55.682;37.564;2023-06-26T12:46:47;99123.91;;;30.68;31.41
25084;BME280;13075;55.682;37.564;2023-06-26T12:49:13;99121.72;;;30.86;31.06
25084;BME280;13075;55.682;37.564;2023-06-26T12:51:39;99122.22;;;31.00;30.82
25084;BME280;13075;55.682;37.564;2023-06-26T12:54:05;99132.34;;;31.08;30.35
25084;BME280;13075;55.682;37.564;2023-06-26T12:56:31;99129.13;;;31.42;30.55